Time;durP1;ratioP1;P1;durP2;ratioP2;P2;SDS_P1;SDS_P2;PMS_P1;PMS_P2;Temp;Humidity;BMP_temperature;BMP_pressure;BME280_temperature;BME280_humidity;BME280_pressure;Samples;Min_cycle;Max_cycle;Signal;HPM_P1;HPM_P2
2022/05/14 00:00:57;;;;;;;6.40;3.73;;;13.40;99.90;;;;;;4927658;29;20207;-65
2022/05/14 00:03:25;;;;;;;3.50;3.20;;;13.40;99.90;;;;;;4925473;29;20293;-66
2022/05/14 00:05:51;;;;;;;6.30;3.93;;;13.40;99.90;;;;;;4927327;29;20209;-65
2022/05/14 00:08:16;;;;;;;6.30;3.60;;;13.30;99.90;;;;;;4925911;29;20261;-65
2022/05/14 00:13:27;;;;;;;9.77;4.50;;;13.30;99.90;;;;;;4924013;29;20329;-65
2022/05/14 00:15:53;;;;;;;6.40;3.53;;;13.30;99.90;;;;;;4926902;29;20820;-65
2022/05/14 00:18:21;;;;;;;4.00;3.60;;;13.40;99.90;;;;;;4925141;29;20262;-65
2022/05/14 00:20:47;;;;;;;7.33;3.27;;;13.40;99.90;;;;;;4926960;29;20617;-65
2022/05/14 00:23:14;;;;;;;3.20;2.97;;;13.30;99.90;;;;;;4925327;29;20302;-65
2022/05/14 00:25:41;;;;;;;5.43;3.00;;;13.30;99.90;;;;;;4926884;29;20194;-65
2022/05/14 00:28:06;;;;;;;3.80;3.30;;;13.40;99.90;;;;;;4925035;29;20569;-66
2022/05/14 00:30:32;;;;;;;7.30;3.20;;;13.30;99.90;;;;;;4927172;29;20289;-65
2022/05/14 00:32:58;;;;;;;11.13;3.80;;;13.30;99.90;;;;;;4924651;29;20214;-65
2022/05/14 00:35:24;;;;;;;7.27;3.60;;;13.20;99.90;;;;;;4926404;29;20226;-66
2022/05/14 00:37:50;;;;;;;4.03;3.57;;;13.20;99.90;;;;;;4925040;29;20262;-66
2022/05/14 00:40:26;;;;;;;8.03;3.60;;;13.20;99.90;;;;;;4926471;29;20186;-66
2022/05/14 00:42:52;;;;;;;6.77;3.80;;;13.10;99.90;;;;;;4923166;29;20237;-66
2022/05/14 00:45:18;;;;;;;7.50;3.67;;;13.10;99.90;;;;;;4927387;29;20221;-67
2022/05/14 00:47:46;;;;;;;7.73;4.37;;;13.10;99.90;;;;;;4924795;29;20222;-66
2022/05/14 00:50:23;;;;;;;7.87;4.57;;;13.10;99.90;;;;;;4927427;29;20195;-66
2022/05/14 00:52:52;;;;;;;6.23;3.97;;;13.10;99.90;;;;;;4915278;29;20210;-81
2022/05/14 00:55:18;;;;;;;5.13;4.07;;;13.10;99.90;;;;;;4913291;29;20187;-68
2022/05/14 00:57:45;;;;;;;5.63;3.80;;;13.20;99.90;;;;;;4929033;29;20203;-68
2022/05/14 01:00:19;;;;;;;6.47;4.07;;;13.20;99.90;;;;;;4930045;29;20202;-69
2022/05/14 01:02:45;;;;;;;3.80;3.27;;;13.30;99.90;;;;;;4926756;29;20205;-67
2022/05/14 01:05:13;;;;;;;4.10;3.67;;;13.40;99.90;;;;;;4931200;29;20191;-67
2022/05/14 01:07:40;;;;;;;3.97;3.37;;;13.40;99.90;;;;;;4928981;29;20222;-67
2022/05/14 01:10:12;;;;;;;6.57;3.63;;;13.40;99.90;;;;;;4929919;29;20186;-67
2022/05/14 01:12:46;;;;;;;4.07;3.67;;;13.40;99.90;;;;;;4929483;29;20282;-67
2022/05/14 01:15:19;;;;;;;6.63;5.17;;;13.50;99.90;;;;;;4931035;29;20670;-68
2022/05/14 01:17:45;;;;;;;8.80;3.90;;;13.50;99.90;;;;;;4922903;29;20704;-69
2022/05/14 01:20:11;;;;;;;7.13;3.97;;;13.50;99.90;;;;;;4930908;29;20187;-67
2022/05/14 01:23:19;;;;;;;5.17;3.63;;;13.50;99.90;;;;;;4928835;29;20543;-68
2022/05/14 01:26:29;;;;;;;4.23;3.50;;;13.40;99.90;;;;;;4919298;29;20222;-66
2022/05/14 01:28:58;;;;;;;4.87;3.93;;;13.50;99.90;;;;;;4925367;29;20574;-68
2022/05/14 01:31:23;;;;;;;5.60;3.70;;;13.50;99.90;;;;;;4930809;29;20191;-67
2022/05/14 01:33:49;;;;;;;7.30;3.90;;;13.60;99.90;;;;;;4928272;29;20635;-68
2022/05/14 01:36:15;;;;;;;5.50;3.87;;;13.60;99.90;;;;;;4930276;29;20314;-67
2022/05/14 01:38:41;;;;;;;6.10;3.60;;;13.60;99.90;;;;;;4928972;29;20207;-67
2022/05/14 01:41:06;;;;;;;7.17;3.60;;;13.60;99.90;;;;;;4930560;29;20226;-67
2022/05/14 01:43:32;;;;;;;8.10;3.37;;;13.60;99.90;;;;;;4929083;29;20753;-66
2022/05/14 01:45:58;;;;;;;5.80;4.13;;;13.70;99.90;;;;;;4930322;29;20550;-67
2022/05/14 01:48:24;;;;;;;5.17;4.77;;;13.60;99.90;;;;;;4928801;29;20325;-66
2022/05/14 01:50:49;;;;;;;5.73;4.17;;;13.60;99.90;;;;;;4920548;29;20317;-66
2022/05/14 01:53:15;;;;;;;8.47;4.83;;;13.60;99.90;;;;;;4928370;29;20298;-66
2022/05/14 01:55:40;;;;;;;6.20;4.10;;;13.70;99.90;;;;;;4924938;29;20229;-66
2022/05/14 01:58:36;;;;;;;4.80;3.80;;;13.70;99.90;;;;;;4918498;29;20309;-66
2022/05/14 02:00:51;;;;;;;13.70;4.17;;;13.60;99.90;;;;;;4929788;29;20197;-66
2022/05/14 02:03:17;;;;;;;6.63;3.87;;;13.60;99.90;;;;;;4928335;29;20210;-65
2022/05/14 02:05:43;;;;;;;5.40;3.70;;;13.50;99.90;;;;;;4921908;29;20206;-66
2022/05/14 02:08:08;;;;;;;6.03;4.40;;;13.50;99.90;;;;;;4928269;29;20203;-66
2022/05/14 02:10:34;;;;;;;4.23;3.43;;;13.50;99.90;;;;;;4930319;29;20199;-67
2022/05/14 02:12:59;;;;;;;6.43;3.53;;;13.50;99.90;;;;;;4928149;29;20309;-68
2022/05/14 02:15:25;;;;;;;6.87;3.63;;;13.50;99.90;;;;;;4929835;29;20278;-67
2022/05/14 02:17:51;;;;;;;6.07;4.07;;;13.40;99.90;;;;;;4916051;29;20682;-66
2022/05/14 02:20:16;;;;;;;4.13;3.13;;;13.40;99.90;;;;;;4930104;29;20191;-67
2022/05/14 02:22:42;;;;;;;7.27;4.20;;;13.40;99.90;;;;;;4927873;29;20203;-67
2022/05/14 02:25:09;;;;;;;7.60;3.93;;;13.50;99.90;;;;;;4930139;29;20221;-67
2022/05/14 02:27:35;;;;;;;7.50;3.63;;;13.60;99.90;;;;;;4927588;29;20262;-67
2022/05/14 02:30:00;;;;;;;3.77;3.23;;;13.50;99.90;;;;;;4930228;29;20545;-67
2022/05/14 02:32:26;;;;;;;4.07;3.43;;;13.50;99.90;;;;;;4929342;29;20199;-67
2022/05/14 02:34:53;;;;;;;4.03;3.63;;;13.50;99.90;;;;;;4940455;29;20486;-67
2022/05/14 02:37:23;;;;;;;4.27;3.60;;;13.40;99.90;;;;;;4927977;29;20202;-72
2022/05/14 02:39:49;;;;;;;4.17;3.30;;;13.40;99.90;;;;;;4925674;29;20194;-72
2022/05/14 02:42:15;;;;;;;8.47;3.53;;;13.30;99.90;;;;;;4926503;29;20206;-73
2022/05/14 02:44:40;;;;;;;3.30;2.73;;;13.30;99.90;;;;;;4928182;29;20736;-72
2022/05/14 02:47:06;;;;;;;9.60;4.90;;;13.20;99.90;;;;;;4926024;29;20701;-73
2022/05/14 02:49:31;;;;;;;8.73;4.33;;;13.20;99.90;;;;;;4928735;29;20191;-74
2022/05/14 02:51:57;;;;;;;5.00;3.57;;;13.10;99.90;;;;;;4927773;29;20206;-82
2022/05/14 02:54:23;;;;;;;8.13;3.37;;;13.10;99.90;;;;;;4929949;29;20277;-80
2022/05/14 02:56:48;;;;;;;5.47;4.70;;;13.10;99.90;;;;;;4915855;29;20671;-79
2022/05/14 02:59:15;;;;;;;3.97;3.47;;;13.10;99.90;;;;;;4928192;29;20191;-79
2022/05/14 03:01:47;;;;;;;4.40;3.73;;;13.20;99.90;;;;;;4918352;29;20274;-76
2022/05/14 03:04:14;;;;;;;6.23;3.83;;;13.20;99.90;;;;;;4928395;29;20194;-74
2022/05/14 03:06:40;;;;;;;6.07;4.03;;;13.10;99.90;;;;;;4921908;29;20336;-74
2022/05/14 03:09:05;;;;;;;8.93;4.07;;;13.00;99.90;;;;;;4928599;29;20298;-74
2022/05/14 03:11:32;;;;;;;8.17;4.37;;;13.00;99.90;;;;;;4927293;29;20207;-76
2022/05/14 03:13:57;;;;;;;9.03;5.27;;;13.00;99.90;;;;;;4930060;29;20266;-77
2022/05/14 03:16:23;;;;;;;4.83;4.13;;;12.90;99.90;;;;;;4926810;29;20195;-75
2022/05/14 03:18:48;;;;;;;7.03;4.93;;;12.80;99.90;;;;;;4929387;29;20190;-76
2022/05/14 03:21:14;;;;;;;5.40;3.87;;;12.80;99.90;;;;;;4927195;29;20197;-75
2022/05/14 03:23:39;;;;;;;6.50;3.60;;;12.70;99.90;;;;;;4929361;29;20601;-75
2022/05/14 03:26:05;;;;;;;7.93;3.97;;;12.60;99.90;;;;;;4926857;29;20305;-76
2022/05/14 03:28:30;;;;;;;6.23;4.50;;;12.60;99.90;;;;;;4929552;29;20183;-76
2022/05/14 03:30:57;;;;;;;5.77;4.30;;;12.50;99.90;;;;;;4927115;29;20700;-76
2022/05/14 03:33:22;;;;;;;5.73;3.97;;;12.50;99.90;;;;;;4929228;29;20202;-76
2022/05/14 03:35:48;;;;;;;10.50;6.10;;;12.50;99.90;;;;;;4928405;29;20231;-76
2022/05/14 03:38:13;;;;;;;6.90;4.73;;;12.40;99.90;;;;;;4927148;29;20207;-75
2022/05/14 03:40:39;;;;;;;6.47;4.40;;;12.40;99.90;;;;;;4917215;29;20640;-75
2022/05/14 03:43:05;;;;;;;8.37;5.00;;;12.40;99.90;;;;;;4927141;29;20209;-76
2022/05/14 03:45:30;;;;;;;5.97;4.70;;;12.40;99.90;;;;;;4928702;29;20209;-76
2022/05/14 03:47:56;;;;;;;3.77;3.40;;;12.40;99.90;;;;;;4926914;29;20310;-76
2022/05/14 03:50:22;;;;;;;7.90;4.53;;;12.50;99.90;;;;;;4922533;29;20843;-75
2022/05/14 03:52:47;;;;;;;4.60;3.77;;;12.40;99.90;;;;;;4926749;29;20225;-76
2022/05/14 03:55:13;;;;;;;6.23;4.17;;;12.40;99.90;;;;;;4928835;29;20346;-75
2022/05/14 03:57:38;;;;;;;7.70;4.33;;;12.40;99.90;;;;;;4927422;29;20211;-75
2022/05/14 04:00:07;;;;;;;6.20;4.30;;;12.40;99.90;;;;;;4928388;29;20198;-75
2022/05/14 04:02:33;;;;;;;5.50;3.63;;;12.30;99.90;;;;;;4926481;29;20967;-75
2022/05/14 04:04:58;;;;;;;8.90;4.07;;;12.30;99.90;;;;;;4928772;29;20245;-74
2022/05/14 04:07:24;;;;;;;4.83;4.13;;;12.40;99.90;;;;;;4926659;29;20701;-73
2022/05/14 04:09:49;;;;;;;9.20;4.27;;;12.40;99.90;;;;;;4928286;29;20658;-73
2022/05/14 04:12:15;;;;;;;10.57;3.90;;;12.40;99.90;;;;;;4926445;29;20191;-74
2022/05/14 04:14:40;;;;;;;6.83;4.47;;;12.40;99.90;;;;;;4916474;29;20198;-74
2022/05/14 04:17:06;;;;;;;7.17;4.00;;;12.40;99.90;;;;;;4926251;29;20263;-73
2022/05/14 04:19:31;;;;;;;7.80;3.60;;;12.40;99.90;;;;;;4928617;29;20205;-72
2022/05/14 04:21:57;;;;;;;8.00;4.30;;;12.50;99.90;;;;;;4925981;29;20649;-73
2022/05/14 04:24:23;;;;;;;5.10;4.00;;;12.50;99.90;;;;;;4925707;29;20241;-72
2022/05/14 04:26:48;;;;;;;6.13;3.33;;;12.50;99.90;;;;;;4926059;29;20219;-73
2022/05/14 04:29:14;;;;;;;6.43;3.83;;;12.50;99.90;;;;;;4928061;29;20265;-75
2022/05/14 04:31:39;;;;;;;7.03;3.60;;;12.50;99.90;;;;;;4926262;29;20215;-76
2022/05/14 04:34:05;;;;;;;4.03;3.40;;;12.60;99.90;;;;;;4928536;29;20179;-76
2022/05/14 04:36:31;;;;;;;5.57;3.93;;;12.60;99.90;;;;;;4926525;29;20310;-76
2022/05/14 04:38:57;;;;;;;7.90;4.10;;;12.60;99.90;;;;;;4928027;29;20195;-75
2022/05/14 04:41:23;;;;;;;12.37;4.33;;;12.60;99.90;;;;;;4926401;29;20223;-76
2022/05/14 04:43:49;;;;;;;6.60;4.07;;;12.60;99.90;;;;;;4928659;29;20218;-76
2022/05/14 04:46:14;;;;;;;4.93;3.83;;;12.70;99.90;;;;;;4926167;29;20301;-76
2022/05/14 04:48:40;;;;;;;7.77;3.33;;;12.70;99.90;;;;;;4928469;29;20205;-75
2022/05/14 04:51:06;;;;;;;5.77;4.07;;;12.80;99.90;;;;;;4926006;29;20657;-76
2022/05/14 04:53:32;;;;;;;4.27;3.80;;;12.80;99.90;;;;;;4928552;29;20190;-76
2022/05/14 04:55:57;;;;;;;9.60;4.53;;;12.80;99.90;;;;;;4926030;29;20195;-76
2022/05/14 04:58:23;;;;;;;8.30;3.60;;;12.90;99.90;;;;;;4928172;29;20208;-75
2022/05/14 05:00:48;;;;;;;4.93;3.83;;;13.00;99.90;;;;;;4927774;29;20246;-75
2022/05/14 05:03:17;;;;;;;8.37;4.00;;;13.00;99.90;;;;;;4926078;29;20203;-74
2022/05/14 05:05:44;;;;;;;8.83;3.93;;;12.90;99.90;;;;;;4928009;29;20202;-75
2022/05/14 05:08:10;;;;;;;9.63;4.77;;;12.90;99.90;;;;;;4925896;29;20258;-74
2022/05/14 05:10:37;;;;;;;6.73;3.70;;;13.10;99.90;;;;;;4927735;29;20199;-74
2022/05/14 05:13:03;;;;;;;6.87;4.07;;;13.00;99.90;;;;;;4926215;29;20203;-75
2022/05/14 05:15:28;;;;;;;7.77;3.93;;;13.00;99.90;;;;;;4927946;29;20193;-74
2022/05/14 05:17:55;;;;;;;7.57;3.70;;;13.10;99.90;;;;;;4925817;29;20215;-74
2022/05/14 05:20:20;;;;;;;8.63;4.07;;;13.10;99.90;;;;;;4927791;29;20641;-75
2022/05/14 05:22:48;;;;;;;8.40;3.60;;;13.10;99.90;;;;;;4925719;29;20302;-75
2022/05/14 05:25:13;;;;;;;8.53;3.83;;;13.10;99.90;;;;;;4926219;29;20195;-75
2022/05/14 05:27:39;;;;;;;9.07;3.70;;;13.20;99.90;;;;;;4925971;29;20225;-73
2022/05/14 05:30:06;;;;;;;3.63;2.83;;;13.30;99.90;;;;;;4915273;29;20198;-74
2022/05/14 05:32:32;;;;;;;10.80;4.47;;;13.40;99.90;;;;;;4926082;29;20690;-74
2022/05/14 05:34:57;;;;;;;10.87;3.90;;;13.50;99.90;;;;;;4927559;29;20295;-74
2022/05/14 05:37:23;;;;;;;9.33;3.67;;;13.50;99.90;;;;;;4925642;29;20207;-74
2022/05/14 05:39:48;;;;;;;10.03;4.27;;;13.60;99.90;;;;;;4918211;29;20202;-75
2022/05/14 05:42:14;;;;;;;4.83;4.33;;;13.60;99.90;;;;;;4929392;29;20573;-75
2022/05/14 05:44:39;;;;;;;6.93;3.70;;;13.70;99.90;;;;;;4930850;29;20211;-76
2022/05/14 05:47:06;;;;;;;5.30;3.70;;;13.70;99.90;;;;;;4929184;29;20223;-76
2022/05/14 05:49:34;;;;;;;6.23;3.57;;;13.80;99.90;;;;;;4931281;29;20195;-76
2022/05/14 05:51:59;;;;;;;4.77;2.80;;;13.80;99.90;;;;;;4928775;29;20700;-75
2022/05/14 05:57:09;;;;;;;7.47;3.37;;;13.90;99.90;;;;;;4926547;29;20569;-65
2022/05/14 05:59:34;;;;;;;7.07;3.53;;;14.00;99.90;;;;;;4930651;29;20567;-66
2022/05/14 06:02:00;;;;;;;6.43;3.73;;;14.30;99.90;;;;;;4928670;29;20237;-67
2022/05/14 06:04:26;;;;;;;8.70;4.43;;;14.50;99.90;;;;;;4930678;29;20677;-65
2022/05/14 06:06:51;;;;;;;7.43;2.97;;;14.50;99.90;;;;;;4929155;29;20250;-67
2022/05/14 06:09:21;;;;;;;6.50;3.30;;;14.50;99.90;;;;;;4931141;29;20191;-66
2022/05/14 06:11:47;;;;;;;6.30;3.27;;;14.60;99.90;;;;;;4929134;29;20194;-65
2022/05/14 06:14:14;;;;;;;4.87;3.03;;;14.70;99.90;;;;;;4927419;29;20195;-66
2022/05/14 06:16:40;;;;;;;7.10;3.40;;;14.70;99.90;;;;;;4928730;29;20239;-66
2022/05/14 06:19:07;;;;;;;12.23;5.00;;;14.80;99.90;;;;;;4930568;29;20235;-65
2022/05/14 06:21:33;;;;;;;5.10;3.10;;;14.70;99.90;;;;;;4928651;29;20206;-67
2022/05/14 06:23:59;;;;;;;5.77;3.30;;;14.60;99.90;;;;;;4930806;29;20194;-65
2022/05/14 06:26:24;;;;;;;8.50;3.70;;;14.70;99.90;;;;;;4926026;29;20223;-64
2022/05/14 06:28:50;;;;;;;6.60;3.40;;;14.60;99.90;;;;;;4929871;29;20201;-66
2022/05/14 06:31:16;;;;;;;6.40;4.03;;;14.70;99.90;;;;;;4928394;29;20282;-67
2022/05/14 06:33:44;;;;;;;6.93;3.53;;;14.90;99.90;;;;;;4930356;29;20179;-67
2022/05/14 06:36:09;;;;;;;6.87;4.20;;;14.90;99.90;;;;;;4927870;29;20678;-66
2022/05/14 06:38:35;;;;;;;8.03;3.70;;;15.10;99.90;;;;;;4930016;29;20285;-66
2022/05/14 06:41:05;;;;;;;6.07;2.73;;;14.90;99.90;;;;;;4915217;29;20317;-67
2022/05/14 06:43:31;;;;;;;6.33;2.97;;;15.00;99.90;;;;;;4929796;29;20191;-66
2022/05/14 06:45:56;;;;;;;5.23;3.20;;;15.30;99.90;;;;;;4928057;29;20551;-66
2022/05/14 06:48:22;;;;;;;5.53;3.13;;;15.40;99.90;;;;;;4930696;29;20231;-65
2022/05/14 06:50:49;;;;;;;6.67;4.00;;;15.50;99.90;;;;;;4929370;29;20191;-65
2022/05/14 06:53:16;;;;;;;9.63;3.97;;;15.50;99.90;;;;;;4927799;29;20206;-65
2022/05/14 06:55:44;;;;;;;11.13;3.17;;;15.50;99.90;;;;;;4929661;29;20274;-67
2022/05/14 06:58:13;;;;;;;9.33;3.80;;;15.40;99.90;;;;;;4927903;29;20219;-67
2022/05/14 07:00:39;;;;;;;7.50;3.87;;;15.40;99.90;;;;;;4928887;29;20209;-66
2022/05/14 07:08:32;;;;;;;4.47;3.40;;;15.50;99.90;;;;;;4916519;29;20225;-67
2022/05/14 07:10:58;;;;;;;7.07;3.80;;;15.60;99.90;;;;;;4926776;29;20187;-66
2022/05/14 07:13:24;;;;;;;7.27;4.10;;;15.60;99.90;;;;;;4929992;29;20215;-66
2022/05/14 07:15:49;;;;;;;5.70;4.53;;;16.00;99.90;;;;;;4929441;29;20376;-67
2022/05/14 07:18:15;;;;;;;8.97;4.07;;;16.00;99.90;;;;;;4927641;29;20206;-67
2022/05/14 07:20:40;;;;;;;13.10;4.70;;;16.00;99.90;;;;;;4929257;29;20234;-67
2022/05/14 07:23:05;;;;;;;6.13;3.23;;;16.20;99.90;;;;;;4927547;29;20662;-67
2022/05/14 07:25:31;;;;;;;5.00;2.83;;;16.00;99.90;;;;;;4927920;29;20195;-67
2022/05/14 07:27:58;;;;;;;6.60;3.47;;;16.20;99.90;;;;;;4927336;29;20223;-68
2022/05/14 07:30:24;;;;;;;8.97;3.03;;;16.40;99.90;;;;;;4929540;29;20482;-68
2022/05/14 07:32:50;;;;;;;11.80;3.70;;;16.50;99.90;;;;;;4927582;29;20230;-67
2022/05/14 07:35:16;;;;;;;6.03;3.67;;;16.60;99.90;;;;;;4928728;29;20220;-67
2022/05/14 07:37:50;;;;;;;8.80;4.47;;;16.40;99.90;;;;;;4927665;29;20211;-67
2022/05/14 07:40:19;;;;;;;5.33;3.97;;;16.50;99.90;;;;;;4913483;29;20194;-68
2022/05/14 07:42:51;;;;;;;12.03;3.70;;;16.40;99.90;;;;;;4928409;29;20559;-65
2022/05/14 07:45:23;;;;;;;9.97;4.50;;;16.40;99.90;;;;;;4928506;29;20290;-68
2022/05/14 07:47:51;;;;;;;9.47;4.40;;;16.40;99.90;;;;;;4923331;29;20262;-66
2022/05/14 07:50:17;;;;;;;6.13;3.70;;;16.40;99.90;;;;;;4928755;29;20210;-65
2022/05/14 07:52:43;;;;;;;7.53;3.00;;;16.90;99.90;;;;;;4926944;29;20210;-66
2022/05/14 07:55:09;;;;;;;6.77;3.50;;;17.10;99.90;;;;;;4928417;29;20199;-67
2022/05/14 07:57:35;;;;;;;8.47;3.50;;;17.10;99.90;;;;;;4926558;29;20215;-68
2022/05/14 08:00:00;;;;;;;9.17;3.53;;;17.20;99.60;;;;;;4927538;29;20238;-67
2022/05/14 08:02:31;;;;;;;6.23;4.10;;;17.20;99.60;;;;;;4926551;29;20246;-67
2022/05/14 08:05:04;;;;;;;6.77;4.33;;;17.20;99.50;;;;;;4914087;29;20287;-67
2022/05/14 08:07:31;;;;;;;13.63;3.80;;;17.30;99.00;;;;;;4920784;29;20222;-67
2022/05/14 08:09:56;;;;;;;9.70;4.17;;;17.10;99.50;;;;;;4925748;29;20763;-65
2022/05/14 08:12:22;;;;;;;10.27;3.90;;;17.10;99.50;;;;;;4928780;29;20183;-65
2022/05/14 08:14:47;;;;;;;11.10;3.63;;;17.00;99.60;;;;;;4926657;29;20211;-65
2022/05/14 08:17:13;;;;;;;8.90;4.73;;;17.10;99.80;;;;;;4927933;29;20733;-65
2022/05/14 08:19:38;;;;;;;10.40;4.03;;;17.30;99.80;;;;;;4926530;29;20294;-66
2022/05/14 08:24:49;;;;;;;8.17;4.03;;;17.50;98.70;;;;;;4923571;29;20275;-66
2022/05/14 08:27:16;;;;;;;6.90;4.40;;;17.40;98.80;;;;;;4928544;29;20710;-65
2022/05/14 08:29:45;;;;;;;10.37;4.60;;;17.50;98.90;;;;;;4926547;29;20285;-65
2022/05/14 08:32:11;;;;;;;10.43;4.80;;;17.60;98.90;;;;;;4928428;29;20189;-66
2022/05/14 08:34:36;;;;;;;10.37;4.07;;;17.90;98.50;;;;;;4925968;29;20236;-65
2022/05/14 08:37:02;;;;;;;12.37;3.70;;;18.10;98.70;;;;;;4928763;29;20542;-66
2022/05/14 08:39:28;;;;;;;14.07;4.13;;;18.30;97.00;;;;;;4926158;29;20203;-66
2022/05/14 08:41:55;;;;;;;10.40;3.33;;;18.40;96.70;;;;;;4928297;29;20190;-66
2022/05/14 08:44:27;;;;;;;8.93;3.43;;;18.00;96.10;;;;;;4926142;29;20578;-67
2022/05/14 08:46:59;;;;;;;9.70;3.67;;;17.80;96.40;;;;;;4927900;29;20578;-67
2022/05/14 08:49:32;;;;;;;8.70;3.50;;;17.90;96.40;;;;;;4923876;29;20222;-67
2022/05/14 08:51:59;;;;;;;11.63;3.97;;;18.10;96.90;;;;;;4928071;29;20192;-67
2022/05/14 08:54:26;;;;;;;5.67;3.40;;;18.10;96.10;;;;;;4925833;29;20671;-67
2022/05/14 08:57:11;;;;;;;9.30;4.07;;;17.90;96.50;;;;;;4927956;29;20193;-66
2022/05/14 08:59:59;;;;;;;8.80;4.00;;;18.00;96.70;;;;;;4913491;29;20230;-67
2022/05/14 09:02:32;;;;;;;10.87;4.70;;;18.20;96.30;;;;;;4928032;29;20223;-67
2022/05/14 09:05:04;;;;;;;10.80;3.50;;;18.10;96.50;;;;;;4925803;29;20209;-67
2022/05/14 09:07:31;;;;;;;9.60;3.33;;;18.30;95.90;;;;;;4928148;29;20211;-69
2022/05/14 09:09:58;;;;;;;9.20;3.20;;;18.20;95.80;;;;;;4914771;29;20218;-70
2022/05/14 09:12:32;;;;;;;7.37;3.00;;;18.10;95.90;;;;;;4928509;29;20191;-69
2022/05/14 09:15:20;;;;;;;13.60;3.57;;;18.20;95.60;;;;;;4924741;29;20220;-69
2022/05/14 09:17:45;;;;;;;12.60;3.57;;;18.30;95.60;;;;;;4925104;29;20218;-69
2022/05/14 09:20:23;;;;;;;5.17;2.93;;;18.40;94.70;;;;;;4929326;29;20218;-66
2022/05/14 09:22:54;;;;;;;9.33;3.90;;;18.40;94.20;;;;;;4924335;29;20247;-75
2022/05/14 09:25:26;;;;;;;8.40;2.93;;;18.40;94.30;;;;;;4928846;29;20238;-69
2022/05/14 09:28:01;;;;;;;7.67;3.63;;;18.30;94.10;;;;;;4924730;29;20222;-68
2022/05/14 09:30:35;;;;;;;9.77;3.67;;;18.40;93.80;;;;;;4931547;29;20220;-65
2022/05/14 09:33:02;;;;;;;8.67;3.40;;;18.50;93.20;;;;;;4921063;29;20267;-65
2022/05/14 09:35:32;;;;;;;6.63;3.43;;;18.60;92.80;;;;;;4919917;29;20220;-66
2022/05/14 09:38:28;;;;;;;9.77;3.27;;;18.70;92.20;;;;;;4927618;29;20227;-66
2022/05/14 09:41:06;;;;;;;10.43;3.17;;;18.80;91.30;;;;;;4915756;29;20254;-67
2022/05/14 09:43:35;;;;;;;12.87;3.60;;;18.80;91.20;;;;;;4931235;29;20186;-66
2022/05/14 09:46:01;;;;;;;5.17;2.67;;;18.70;91.30;;;;;;4929142;29;20258;-67
2022/05/14 09:48:36;;;;;;;6.57;2.53;;;18.80;90.70;;;;;;4931794;29;20167;-67
2022/05/14 09:51:09;;;;;;;6.97;3.60;;;18.70;90.90;;;;;;4927331;29;20539;-67
2022/05/14 09:53:43;;;;;;;9.30;3.17;;;18.70;91.10;;;;;;4931205;29;20191;-67
2022/05/14 09:56:46;;;;;;;6.40;3.07;;;18.80;91.40;;;;;;4928477;29;20713;-67
2022/05/14 09:59:40;;;;;;;7.50;2.93;;;18.80;88.20;;;;;;4926813;29;20667;-67
2022/05/14 10:02:44;;;;;;;10.27;3.23;;;18.80;86.30;;;;;;4920954;29;20704;-66
2022/05/14 10:05:13;;;;;;;8.13;2.97;;;18.90;85.70;;;;;;4901238;29;20842;-67
2022/05/14 10:07:52;;;;;;;7.67;3.47;;;18.70;86.20;;;;;;4928793;29;20218;-66
2022/05/14 10:10:37;;;;;;;6.53;3.13;;;18.90;85.90;;;;;;4929130;29;20187;-66
2022/05/14 10:13:21;;;;;;;5.20;2.07;;;19.00;85.50;;;;;;4928186;29;20771;-66
2022/05/14 10:16:21;;;;;;;6.93;3.97;;;18.90;82.70;;;;;;4913482;29;20187;-66
2022/05/14 10:19:04;;;;;;;5.73;2.90;;;18.60;83.30;;;;;;4930547;29;20598;-67
2022/05/14 10:21:52;;;;;;;8.20;2.77;;;19.10;83.80;;;;;;4916413;29;20980;-66
2022/05/14 10:27:45;;;;;;;6.73;2.70;;;19.70;81.90;;;;;;4926116;29;20228;-66
2022/05/14 10:30:28;;;;;;;7.30;3.07;;;19.90;79.10;;;;;;4910377;29;20202;-65
2022/05/14 10:33:20;;;;;;;8.20;3.10;;;19.90;77.00;;;;;;4916722;29;20239;-65
2022/05/14 10:35:52;;;;;;;6.33;3.23;;;19.70;76.90;;;;;;4929110;29;20224;-66
2022/05/14 10:38:24;;;;;;;7.73;2.60;;;19.70;77.60;;;;;;4924391;29;20225;-66
2022/05/14 10:41:01;;;;;;;6.87;2.93;;;19.40;78.30;;;;;;4922536;29;20663;-66
2022/05/14 10:43:53;;;;;;;7.73;3.03;;;19.50;79.30;;;;;;4925292;29;20805;-66
2022/05/14 10:46:21;;;;;;;8.07;2.80;;;19.40;79.40;;;;;;4910688;29;20289;-66
2022/05/14 10:48:55;;;;;;;8.83;3.40;;;19.40;79.90;;;;;;4927223;29;20197;-66
2022/05/14 10:51:25;;;;;;;6.77;2.90;;;19.10;80.20;;;;;;4914668;29;20214;-67
2022/05/14 10:53:51;;;;;;;7.97;2.53;;;19.30;80.40;;;;;;4927252;29;20245;-66
2022/05/14 10:56:56;;;;;;;12.03;3.17;;;19.50;79.90;;;;;;4926768;29;20675;-67
2022/05/14 10:59:34;;;;;;;8.57;3.30;;;20.10;78.60;;;;;;4926244;29;20720;-67
2022/05/14 11:02:13;;;;;;;6.07;3.03;;;20.10;78.40;;;;;;4923345;29;20205;-66
2022/05/14 11:04:38;;;;;;;7.93;3.33;;;20.80;77.10;;;;;;4929112;29;20943;-67
2022/05/14 11:07:10;;;;;;;13.63;4.20;;;20.70;76.90;;;;;;4929595;29;20300;-67
2022/05/14 11:09:48;;;;;;;8.10;3.40;;;20.90;76.20;;;;;;4912191;29;20189;-66
2022/05/14 11:12:20;;;;;;;8.10;3.10;;;21.70;74.30;;;;;;4915238;29;20261;-67
2022/05/14 11:14:47;;;;;;;7.40;3.20;;;21.70;73.20;;;;;;4929075;29;20205;-65
2022/05/14 11:17:28;;;;;;;10.43;3.07;;;21.70;74.30;;;;;;4917411;29;20212;-67
2022/05/14 11:20:06;;;;;;;8.00;3.20;;;21.50;73.40;;;;;;4928790;29;20192;-67
2022/05/14 11:23:02;;;;;;;7.87;3.80;;;20.50;76.00;;;;;;4917513;29;20204;-66
2022/05/14 11:25:28;;;;;;;8.60;3.17;;;21.20;74.60;;;;;;4928578;29;20205;-65
2022/05/14 11:28:03;;;;;;;7.13;3.10;;;21.40;73.50;;;;;;4926390;29;20676;-65
2022/05/14 11:30:37;;;;;;;9.77;2.83;;;21.10;74.60;;;;;;4928446;29;20216;-66
2022/05/14 11:33:06;;;;;;;8.50;3.23;;;21.40;73.90;;;;;;4916253;29;20798;-66
2022/05/14 11:35:37;;;;;;;7.83;3.20;;;21.90;73.30;;;;;;4927279;29;21052;-66
2022/05/14 11:38:13;;;;;;;9.13;5.90;;;22.20;72.30;;;;;;4925573;29;20214;-66
2022/05/14 11:40:39;;;;;;;7.43;3.77;;;22.30;71.50;;;;;;4927499;29;20201;-67
2022/05/14 11:43:20;;;;;;;8.23;3.37;;;21.60;71.40;;;;;;4915710;29;20674;-66
2022/05/14 11:46:08;;;;;;;7.73;3.50;;;21.20;72.20;;;;;;4924544;29;20222;-66
2022/05/14 11:48:41;;;;;;;11.97;6.10;;;20.90;72.70;;;;;;4919181;29;20666;-66
2022/05/14 11:51:18;;;;;;;5.33;3.20;;;21.40;71.80;;;;;;4927027;29;20757;-66
2022/05/14 11:54:00;;;;;;;9.27;3.63;;;21.50;71.00;;;;;;4926170;29;20216;-66
2022/05/14 11:56:33;;;;;;;7.80;3.93;;;21.50;70.30;;;;;;4917543;29;20596;-66
2022/05/14 11:59:34;;;;;;;11.67;4.10;;;21.60;71.70;;;;;;4924508;29;20205;-66
2022/05/14 12:02:02;;;;;;;9.90;3.80;;;22.30;69.80;;;;;;4908265;29;20740;-66
2022/05/14 12:04:40;;;;;;;25.13;16.93;;;22.10;70.00;;;;;;4926357;29;20310;-66
2022/05/14 12:07:19;;;;;;;9.60;3.20;;;21.80;69.20;;;;;;4925706;29;20217;-66
2022/05/14 12:10:09;;;;;;;5.70;3.00;;;21.40;68.40;;;;;;4916463;29;20190;-66
2022/05/14 12:12:48;;;;;;;7.83;3.00;;;22.70;68.00;;;;;;4924740;29;20206;-66
2022/05/14 12:15:18;;;;;;;8.47;3.50;;;22.80;66.30;;;;;;4927825;29;20202;-66
2022/05/14 12:17:48;;;;;;;7.77;2.57;;;22.20;67.90;;;;;;4926203;29;20323;-66
2022/05/14 12:20:20;;;;;;;8.97;4.43;;;21.90;68.80;;;;;;4927814;29;20599;-66
2022/05/14 12:22:55;;;;;;;5.43;4.93;;;21.90;68.90;;;;;;4914728;29;20684;-66
2022/05/14 12:25:21;;;;;;;9.87;3.97;;;21.50;69.00;;;;;;4928175;29;20192;-66
2022/05/14 12:27:49;;;;;;;7.07;3.23;;;21.40;69.60;;;;;;4925659;29;20244;-66
2022/05/14 12:33:11;;;;;;;11.57;5.03;;;21.40;69.90;;;;;;4927303;29;20200;-66
2022/05/14 12:33:11;;;;;;;8.00;3.10;;;21.40;70.80;;;;;;4914254;29;20210;-66
2022/05/14 12:35:37;;;;;;;5.57;3.07;;;21.50;70.30;;;;;;4926351;29;20244;-66
2022/05/14 12:38:05;;;;;;;6.77;2.67;;;21.50;69.50;;;;;;4926323;29;20403;-66
2022/05/14 12:40:38;;;;;;;11.23;3.00;;;21.60;67.80;;;;;;4927642;29;20723;-66
2022/05/14 12:43:12;;;;;;;6.87;3.10;;;21.50;68.80;;;;;;4916420;29;20230;-66
2022/05/14 12:45:41;;;;;;;8.00;2.97;;;21.30;68.20;;;;;;4926225;29;20201;-66
2022/05/14 12:48:09;;;;;;;12.73;3.33;;;21.20;69.40;;;;;;4925192;29;20314;-66
2022/05/14 12:50:35;;;;;;;8.30;3.77;;;21.30;69.50;;;;;;4929459;29;20219;-66
2022/05/14 12:53:07;;;;;;;12.27;4.93;;;21.00;70.20;;;;;;4929654;29;20299;-66
2022/05/14 12:55:41;;;;;;;7.90;3.07;;;20.80;70.90;;;;;;4929657;29;20206;-66
2022/05/14 12:58:07;;;;;;;8.17;3.33;;;20.60;71.40;;;;;;4918674;29;20210;-66
2022/05/14 13:00:36;;;;;;;9.40;4.37;;;20.50;70.70;;;;;;4931161;29;20205;-66
2022/05/14 13:03:04;;;;;;;9.50;3.43;;;20.60;70.10;;;;;;4919655;29;20217;-67
2022/05/14 13:05:46;;;;;;;6.93;3.83;;;20.50;70.90;;;;;;4931049;29;20262;-66
2022/05/14 13:08:15;;;;;;;13.33;3.67;;;20.60;71.50;;;;;;4925038;29;20285;-67
2022/05/14 13:10:48;;;;;;;9.93;3.33;;;20.60;70.40;;;;;;4931329;29;20202;-66
2022/05/14 13:13:15;;;;;;;9.13;3.37;;;20.40;70.80;;;;;;4929231;29;20585;-67
2022/05/14 13:15:44;;;;;;;9.33;2.97;;;20.40;71.20;;;;;;4927369;29;20281;-67